createdAt,value
2018-12-23T00:02:00.525Z,97162.84
2018-12-23T00:04:26.413Z,97171.97
2018-12-23T00:06:52.324Z,97161.48
2018-12-23T00:09:18.241Z,97159.86
2018-12-23T00:11:44.727Z,97162.69
2018-12-23T00:14:14.338Z,97158.41
2018-12-23T00:16:43.319Z,97168.73
2018-12-23T00:19:09.220Z,97173.53
2018-12-23T00:21:35.084Z,97173.39
2018-12-23T00:24:01.016Z,97180.63
2018-12-23T00:26:26.878Z,97193.55
2018-12-23T00:28:55.563Z,97202.09
2018-12-23T00:31:21.578Z,97211.00
2018-12-23T00:33:50.698Z,97211.00
2018-12-23T00:36:17.861Z,97206.64
2018-12-23T00:38:45.354Z,97200.20
2018-12-23T00:41:11.289Z,97213.27
2018-12-23T00:43:37.507Z,97219.55
2018-12-23T00:46:03.369Z,97219.81
2018-12-23T00:48:29.295Z,97218.91
2018-12-23T00:50:57.008Z,97215.06
2018-12-23T00:53:23.312Z,97214.36
2018-12-23T00:55:53.697Z,97226.74
2018-12-23T00:58:19.586Z,97224.73
2018-12-23T01:00:46.445Z,97229.55
2018-12-23T01:03:12.373Z,97235.11
2018-12-23T01:05:41.680Z,97227.48
2018-12-23T01:08:07.666Z,97232.48
2018-12-23T01:10:36.763Z,97233.58
2018-12-23T01:13:02.698Z,97234.11
2018-12-23T01:15:32.557Z,97239.41
2018-12-23T01:17:58.511Z,97233.84
2018-12-23T01:20:24.444Z,97231.63
2018-12-23T01:22:50.313Z,97238.17
2018-12-23T01:25:16.161Z,97228.09
2018-12-23T01:27:43.411Z,97235.28
2018-12-23T01:30:09.615Z,97245.07
2018-12-23T01:32:38.527Z,97243.36
2018-12-23T01:35:04.552Z,97241.55
2018-12-23T01:37:32.182Z,97243.27
2018-12-23T01:39:58.092Z,97244.59
2018-12-23T01:42:28.001Z,97234.22
2018-12-23T01:44:54.029Z,97238.70
2018-12-23T01:47:21.966Z,97242.59
2018-12-23T01:49:47.840Z,97239.95
2018-12-23T01:52:18.160Z,97240.45
2018-12-23T01:54:44.080Z,97234.22
2018-12-23T01:57:09.946Z,97232.55
2018-12-23T01:59:35.843Z,97220.20
2018-12-23T02:02:01.693Z,97240.10
2018-12-23T02:04:27.732Z,97240.16
2018-12-23T02:06:53.609Z,97244.91
2018-12-23T02:09:22.405Z,97243.28
2018-12-23T02:11:48.303Z,97227.67
2018-12-23T02:14:17.037Z,97232.93
2018-12-23T02:16:42.915Z,97240.70
2018-12-23T02:19:11.745Z,97242.53
2018-12-23T02:21:37.612Z,97247.61
2018-12-23T02:24:06.404Z,97248.77
2018-12-23T02:26:32.327Z,97241.36
2018-12-23T02:29:01.303Z,97249.20
2018-12-23T02:31:27.254Z,97250.33
2018-12-23T02:33:53.247Z,97250.83
2018-12-23T02:36:19.167Z,97247.41
2018-12-23T02:38:45.147Z,97255.91
2018-12-23T02:41:12.847Z,97250.95
2018-12-23T02:43:39.497Z,97254.27
2018-12-23T02:46:09.336Z,97246.16
2018-12-23T02:48:35.235Z,97241.38
2018-12-23T02:51:03.076Z,97243.31
2018-12-23T02:53:28.988Z,97242.79
2018-12-23T02:55:58.818Z,97243.84
2018-12-23T02:58:24.705Z,97249.42
2018-12-23T03:00:51.693Z,97244.03
2018-12-23T03:03:17.620Z,97238.84
2018-12-23T03:05:46.517Z,97245.45
2018-12-23T03:08:12.399Z,97247.19
2018-12-23T03:10:38.323Z,97249.02
2018-12-23T03:13:04.219Z,97238.11
2018-12-23T03:15:30.110Z,97245.19
2018-12-23T03:17:59.077Z,97243.77
2018-12-23T03:20:24.918Z,97238.17
2018-12-23T03:22:54.721Z,97242.00
2018-12-23T03:25:20.653Z,97243.19
2018-12-23T03:27:48.413Z,97250.55
2018-12-23T03:30:14.311Z,97245.48
2018-12-23T03:32:44.187Z,97243.70
2018-12-23T03:35:10.059Z,97240.98
2018-12-23T03:37:37.822Z,97242.48
2018-12-23T03:40:03.946Z,97247.95
2018-12-23T03:42:33.470Z,97238.17
2018-12-23T03:44:59.449Z,97232.02
2018-12-23T03:47:25.404Z,97246.08
2018-12-23T03:49:51.328Z,97237.47
2018-12-23T03:52:17.235Z,97242.19
2018-12-23T03:54:44.018Z,97241.16
2018-12-23T03:57:09.895Z,97236.83
2018-12-23T03:59:38.681Z,97238.62
2018-12-23T04:02:04.566Z,97239.53
2018-12-23T04:04:32.937Z,97241.89
2018-12-23T04:06:59.095Z,97248.77
2018-12-23T04:09:28.136Z,97242.53
2018-12-23T04:11:54.021Z,97240.00
2018-12-23T04:14:22.840Z,97242.39
2018-12-23T04:16:48.732Z,97248.77
2018-12-23T04:19:17.487Z,97244.87
2018-12-23T04:21:44.827Z,97247.46
2018-12-23T04:24:10.730Z,97237.91
2018-12-23T04:26:36.621Z,97247.84
2018-12-23T04:29:02.637Z,97243.95
2018-12-23T04:31:29.446Z,97249.14
2018-12-23T04:33:55.384Z,97247.91
2018-12-23T04:36:34.013Z,97250.56
2018-12-23T04:38:56.742Z,97252.04
2018-12-23T04:41:22.635Z,97255.94
2018-12-23T04:43:48.536Z,97259.00
2018-12-23T04:46:14.589Z,97253.39
2018-12-23T04:48:40.504Z,97243.55
2018-12-23T04:51:08.382Z,97253.42
2018-12-23T04:53:34.256Z,97254.72
2018-12-23T04:56:04.118Z,97252.13
2018-12-23T04:58:30.148Z,97248.38
2018-12-23T05:00:56.235Z,97252.77
2018-12-23T05:03:22.106Z,97247.19
2018-12-23T05:05:48.034Z,97244.87
2018-12-23T05:08:14.735Z,97246.22
2018-12-23T05:10:40.632Z,97235.91
2018-12-23T05:13:11.914Z,97234.87
2018-12-23T05:15:37.902Z,97205.20
2018-12-23T05:18:03.858Z,97218.68
2018-12-23T05:20:29.745Z,97231.78
2018-12-23T05:22:58.372Z,97236.58
2018-12-23T05:25:24.236Z,97234.57
2018-12-23T05:27:54.345Z,97237.75
2018-12-23T05:30:20.256Z,97247.06
2018-12-23T05:32:49.453Z,97253.11
2018-12-23T05:35:15.316Z,97243.98
2018-12-23T05:37:41.191Z,97244.47
2018-12-23T05:40:07.145Z,97249.27
2018-12-23T05:42:33.075Z,97247.01
2018-12-23T05:45:00.493Z,97247.53
2018-12-23T05:47:26.444Z,97256.61
2018-12-23T05:49:55.374Z,97261.09
2018-12-23T05:52:21.249Z,97265.75
2018-12-23T05:54:49.007Z,97264.84
2018-12-23T05:57:14.937Z,97264.31
2018-12-23T05:59:43.645Z,97258.41
2018-12-23T06:02:09.558Z,97264.45
2018-12-23T06:04:38.306Z,97260.70
2018-12-23T06:07:04.176Z,97258.22
2018-12-23T06:09:33.019Z,97259.80
2018-12-23T06:11:59.038Z,97255.09
2018-12-23T06:14:25.234Z,97254.86
2018-12-23T06:16:51.196Z,97253.56
2018-12-23T06:19:17.144Z,97242.33
2018-12-23T06:21:46.196Z,97253.03
2018-12-23T06:24:12.097Z,97249.80
2018-12-23T06:26:39.953Z,97252.84
2018-12-23T06:29:05.833Z,97253.22
2018-12-23T06:31:35.429Z,97262.00
2018-12-23T06:34:01.351Z,97262.11
2018-12-23T06:36:29.108Z,97263.94
2018-12-23T06:38:56.527Z,97259.13
2018-12-23T06:41:23.849Z,97265.81
2018-12-23T06:43:50.890Z,97265.06
2018-12-23T06:46:18.546Z,97269.48
2018-12-23T06:48:44.419Z,97275.16
2018-12-23T06:51:10.423Z,97274.72
2018-12-23T06:53:36.330Z,97281.64
2018-12-23T06:56:02.216Z,97278.77
2018-12-23T06:58:31.134Z,97274.49
2018-12-23T07:00:57.036Z,97279.67
2018-12-23T07:03:26.890Z,97280.39
2018-12-23T07:05:52.773Z,97286.16
2018-12-23T07:08:20.600Z,97287.11
2018-12-23T07:10:46.532Z,97291.39
2018-12-23T07:13:14.428Z,97284.00
2018-12-23T07:15:40.398Z,97293.02
2018-12-23T07:18:08.794Z,97286.92
2018-12-23T07:20:34.746Z,97291.87
2018-12-23T07:23:03.623Z,97279.68
2018-12-23T07:25:29.537Z,97278.19
2018-12-23T07:27:55.497Z,97278.14
2018-12-23T07:30:21.530Z,97280.59
2018-12-23T07:32:47.405Z,97279.22
2018-12-23T07:35:16.565Z,97276.19
2018-12-23T07:37:42.422Z,97283.77
2018-12-23T07:40:11.354Z,97279.87
2018-12-23T07:42:37.253Z,97282.61
2018-12-23T07:45:06.172Z,97282.33
2018-12-23T07:47:32.082Z,97283.84
2018-12-23T07:50:01.261Z,97284.81
2018-12-23T07:52:27.206Z,97279.83
2018-12-23T07:54:54.814Z,97283.00
2018-12-23T07:57:20.768Z,97279.57
2018-12-23T07:59:49.644Z,97282.11
2018-12-23T08:02:15.578Z,97281.06
2018-12-23T08:04:41.506Z,97279.44
2018-12-23T08:07:07.355Z,97282.44
2018-12-23T08:09:33.279Z,97280.73
2018-12-23T08:12:02.367Z,97278.66
2018-12-23T08:14:28.285Z,97287.11
2018-12-23T08:16:56.034Z,97283.70
2018-12-23T08:19:21.949Z,97279.68
2018-12-23T08:21:50.409Z,97277.42
2018-12-23T08:24:16.321Z,97241.71
2018-12-23T08:26:46.799Z,97276.84
2018-12-23T08:29:12.671Z,97277.56
2018-12-23T08:31:40.323Z,97276.98
2018-12-23T08:34:06.334Z,97287.63
2018-12-23T08:36:36.161Z,97286.25
2018-12-23T08:39:03.495Z,97285.42
2018-12-23T08:41:29.385Z,97284.76
2018-12-23T08:43:55.617Z,97282.88
2018-12-23T08:46:21.481Z,97280.73
2018-12-23T08:48:47.391Z,97274.77
2018-12-23T08:51:13.278Z,97276.06
2018-12-23T08:53:42.231Z,97271.66
2018-12-23T08:56:08.174Z,97278.25
2018-12-23T08:58:35.895Z,97275.13
2018-12-23T09:01:01.808Z,97275.27
2018-12-23T09:03:30.723Z,97276.17
2018-12-23T09:05:56.618Z,97277.75
2018-12-23T09:08:25.420Z,97270.68
2018-12-23T09:10:51.326Z,97278.97
2018-12-23T09:13:19.962Z,97269.75
2018-12-23T09:15:45.883Z,97266.57
2018-12-23T09:18:19.133Z,97263.39
2018-12-23T09:20:39.642Z,97267.46
2018-12-23T09:23:05.578Z,97261.18
2018-12-23T09:25:31.553Z,97259.83
2018-12-23T09:27:57.438Z,97254.43
2018-12-23T09:30:27.739Z,97251.63
2018-12-23T09:32:53.644Z,97256.61
2018-12-23T09:35:22.894Z,97247.53
2018-12-23T09:37:48.828Z,97242.30
2018-12-23T09:40:16.399Z,97240.88
2018-12-23T09:42:42.287Z,97235.70
2018-12-23T09:45:11.961Z,97227.20
2018-12-23T09:47:37.969Z,97223.85
2018-12-23T09:50:48.033Z,97221.39
2018-12-23T09:53:16.077Z,97221.23
2018-12-23T09:55:42.292Z,97219.43
2018-12-23T09:58:08.241Z,97205.55
2018-12-23T10:00:34.249Z,97203.80
2018-12-23T10:03:00.247Z,97198.28
2018-12-23T10:05:27.104Z,97199.50
2018-12-23T10:07:53.083Z,97195.08
2018-12-23T10:10:19.059Z,97195.08
2018-12-23T10:12:45.237Z,97196.00
2018-12-23T10:15:11.208Z,97199.05
2018-12-23T10:17:37.480Z,97187.27
2018-12-23T10:20:05.873Z,97176.50
2018-12-23T10:22:31.836Z,97174.73
2018-12-23T10:24:57.796Z,97172.03
2018-12-23T10:27:24.040Z,97171.27
2018-12-23T10:29:50.338Z,97164.02
2018-12-23T10:32:20.144Z,97163.81
2018-12-23T10:34:46.366Z,97171.52
2018-12-23T10:37:12.331Z,97170.59
2018-12-23T10:39:38.789Z,97163.41
2018-12-23T10:42:04.731Z,97162.97
2018-12-23T10:44:30.710Z,97156.08
2018-12-23T10:46:57.693Z,97154.17
2018-12-23T10:49:23.832Z,97143.64
2018-12-23T10:51:49.798Z,97148.97
2018-12-23T10:54:16.052Z,97143.16
2018-12-23T10:56:42.044Z,97140.37
2018-12-23T10:59:08.548Z,97136.84
2018-12-23T11:01:34.513Z,97135.68
2018-12-23T11:04:00.955Z,97130.58
2018-12-23T11:06:27.023Z,97073.77
2018-12-23T11:08:52.993Z,97117.87
2018-12-23T11:11:18.987Z,97124.77
2018-12-23T11:13:44.951Z,97115.13
2018-12-23T11:16:15.977Z,97117.03
2018-12-23T11:18:42.356Z,97117.20
2018-12-23T11:21:08.372Z,97109.63
2018-12-23T11:23:34.591Z,97110.77
2018-12-23T11:26:00.534Z,97104.13
2018-12-23T11:28:26.495Z,97094.17
2018-12-23T11:30:52.731Z,97089.14
2018-12-23T11:33:18.745Z,97081.80
2018-12-23T11:35:44.959Z,97081.80
2018-12-23T11:38:10.936Z,97074.71
2018-12-23T11:40:36.915Z,97068.72
2018-12-23T11:43:03.501Z,97064.01
2018-12-23T11:45:29.822Z,97059.05
2018-12-23T11:47:55.766Z,97056.52
2018-12-23T11:50:21.758Z,97042.60
2018-12-23T11:52:48.008Z,97044.52
2018-12-23T11:55:14.095Z,97032.00
2018-12-23T11:57:40.118Z,97026.63
2018-12-23T12:00:06.457Z,97022.84
2018-12-23T12:02:33.189Z,97015.95
2018-12-23T12:04:59.146Z,97012.50
2018-12-23T12:07:25.443Z,97009.91
2018-12-23T12:09:51.370Z,97008.21
2018-12-23T12:12:17.343Z,96997.30
2018-12-23T12:14:43.380Z,97006.08
2018-12-23T12:17:09.341Z,96993.77
2018-12-23T12:19:35.313Z,96992.63
2018-12-23T12:22:01.436Z,96983.92
2018-12-23T12:24:27.400Z,96967.81
2018-12-23T12:26:53.392Z,96981.41
2018-12-23T12:29:19.356Z,96971.95
2018-12-23T12:31:45.924Z,96969.19
2018-12-23T12:34:13.644Z,96972.70
2018-12-23T12:36:39.970Z,96974.00
2018-12-23T12:39:09.519Z,96962.33
2018-12-23T12:41:35.795Z,96960.78
2018-12-23T12:44:04.558Z,96953.09
2018-12-23T12:46:30.516Z,96947.03
2018-12-23T12:48:59.772Z,96939.88
2018-12-23T12:51:26.172Z,96938.28
2018-12-23T12:53:52.111Z,96930.55
2018-12-23T12:56:18.075Z,96925.28
2018-12-23T12:58:44.486Z,96917.19
2018-12-23T13:01:10.464Z,96909.78
2018-12-23T13:03:36.755Z,96918.04
2018-12-23T13:06:05.542Z,96908.34
2018-12-23T13:08:31.832Z,96899.55
2018-12-23T13:11:00.793Z,96899.05
2018-12-23T13:13:27.022Z,96902.30
2018-12-23T13:15:52.984Z,96891.73
2018-12-23T13:18:18.955Z,96887.97
2018-12-23T13:20:48.051Z,96876.84
2018-12-23T13:23:14.006Z,96865.16
2018-12-23T13:25:42.994Z,96858.69
2018-12-23T13:28:12.485Z,96848.69
2018-12-23T13:30:39.171Z,96843.56
2018-12-23T13:33:05.352Z,96829.84
2018-12-23T13:35:31.319Z,96820.63
2018-12-23T13:37:57.309Z,96815.56
2018-12-23T13:40:41.933Z,96807.81
2018-12-23T13:43:20.505Z,96798.50
2018-12-23T13:45:53.584Z,96791.77
2018-12-23T13:48:32.197Z,96787.75
2018-12-23T13:51:29.419Z,96782.97
2018-12-23T13:53:58.078Z,96769.19
2018-12-23T13:56:33.612Z,96762.23
2018-12-23T13:59:16.153Z,96749.50
2018-12-23T14:02:07.043Z,96748.59
2018-12-23T14:04:55.286Z,96736.09
2018-12-23T14:07:46.475Z,96734.79
2018-12-23T14:10:31.743Z,96715.98
2018-12-23T14:12:59.881Z,96713.16
2018-12-23T14:15:26.414Z,96708.81
2018-12-23T14:17:52.377Z,96697.98
2018-12-23T14:20:18.618Z,96674.89
2018-12-23T14:22:44.870Z,96674.89
2018-12-23T14:25:10.811Z,96676.09
2018-12-23T14:27:36.798Z,96674.80
2018-12-23T14:30:04.465Z,96671.45
2018-12-23T14:32:30.763Z,96659.80
2018-12-23T14:34:56.832Z,96665.35
2018-12-23T14:37:22.794Z,96657.95
2018-12-23T14:39:49.051Z,96657.44
2018-12-23T14:42:15.010Z,96644.01
2018-12-23T14:44:41.249Z,96638.45
2018-12-23T14:47:07.228Z,96637.97
2018-12-23T14:49:33.473Z,96632.41
2018-12-23T14:52:02.126Z,96633.09
2018-12-23T14:54:28.759Z,96629.58
2018-12-23T14:56:54.674Z,96616.63
2018-12-23T14:59:20.642Z,96613.66
2018-12-23T15:01:46.735Z,96605.64
2018-12-23T15:04:13.011Z,96609.45
2018-12-23T15:06:38.971Z,96604.64
2018-12-23T15:09:05.273Z,96590.94
2018-12-23T15:11:31.338Z,96601.22
2018-12-23T15:13:57.327Z,96595.95
2018-12-23T15:16:23.257Z,96587.11
2018-12-23T15:18:49.228Z,96581.69
2018-12-23T15:21:15.458Z,96580.88
2018-12-23T15:23:41.447Z,96518.94
2018-12-23T15:26:07.681Z,96569.78
2018-12-23T15:28:33.634Z,96569.33
2018-12-23T15:31:02.517Z,96563.30
2018-12-23T15:33:28.609Z,96559.41
2018-12-23T15:35:54.544Z,96552.89
2018-12-23T15:38:20.531Z,96547.56
2018-12-23T15:40:46.467Z,96547.45
2018-12-23T15:43:12.437Z,96544.48
2018-12-23T15:45:38.617Z,96533.56
2018-12-23T15:48:04.743Z,96525.16
2018-12-23T15:50:30.711Z,96518.79
2018-12-23T15:52:57.013Z,96524.31
2018-12-23T15:55:23.259Z,96525.36
2018-12-23T15:57:49.244Z,96521.47
2018-12-23T16:00:15.193Z,96522.70
2018-12-23T16:02:41.174Z,96517.26
2018-12-23T16:05:07.459Z,96513.77
2018-12-23T16:07:33.677Z,96455.05
2018-12-23T16:09:59.840Z,96514.44
2018-12-23T16:12:25.804Z,96507.09
2018-12-23T16:14:51.815Z,96507.84
2018-12-23T16:17:17.769Z,96498.76
2018-12-23T16:19:43.742Z,96500.61
2018-12-23T16:22:09.721Z,96491.71
2018-12-23T16:24:35.703Z,96499.34
2018-12-23T16:27:01.685Z,96491.55
2018-12-23T16:29:30.675Z,96499.63
2018-12-23T16:31:57.148Z,96486.02
2018-12-23T16:34:26.135Z,96485.86
2018-12-23T16:36:52.331Z,96487.34
2018-12-23T16:39:18.629Z,96484.95
2018-12-23T16:41:44.593Z,96487.73
2018-12-23T16:44:13.589Z,96482.11
2018-12-23T16:46:39.788Z,96481.30
2018-12-23T16:49:05.736Z,96477.25
2018-12-23T16:51:32.013Z,96480.40
2018-12-23T16:53:58.088Z,96474.39
2018-12-23T16:56:25.705Z,96467.50
2018-12-23T16:58:51.711Z,96485.61
2018-12-23T17:01:20.445Z,96471.59
2018-12-23T17:03:46.622Z,96478.34
2018-12-23T17:06:15.765Z,96471.82
2018-12-23T17:08:42.004Z,96475.19
2018-12-23T17:11:10.802Z,96466.60
2018-12-23T17:13:36.760Z,96466.95
2018-12-23T17:16:02.705Z,96470.67
2018-12-23T17:18:28.711Z,96461.91
2018-12-23T17:20:54.663Z,96461.97
2018-12-23T17:23:23.417Z,96457.98
2018-12-23T17:25:49.673Z,96455.53
2018-12-23T17:28:15.669Z,96458.67
2018-12-23T17:30:41.867Z,96451.81
2018-12-23T17:33:11.166Z,96453.11
2018-12-23T17:35:37.605Z,96458.10
2018-12-23T17:38:04.878Z,96468.91
2018-12-23T17:40:30.829Z,96456.32
2018-12-23T17:43:02.067Z,96463.91
2018-12-23T17:45:28.032Z,96458.98
2018-12-23T17:47:57.000Z,96454.13
2018-12-23T17:50:22.933Z,96459.73
2018-12-23T17:52:49.203Z,96465.03
2018-12-23T17:55:15.192Z,96480.66
2018-12-23T17:57:41.168Z,96467.16
2018-12-23T18:00:07.493Z,96473.84
2018-12-23T18:02:33.489Z,96462.13
2018-12-23T18:05:02.610Z,96459.73
2018-12-23T18:07:28.613Z,96218.96
2018-12-23T18:09:57.617Z,96457.89
2018-12-23T18:12:23.593Z,96452.23
2018-12-23T18:14:52.973Z,96450.27
2018-12-23T18:17:19.991Z,96457.16
2018-12-23T18:19:46.571Z,96459.38
2018-12-23T18:22:12.554Z,96462.25
2018-12-23T18:24:40.447Z,96459.20
2018-12-23T18:27:06.665Z,96462.70
2018-12-23T18:29:32.630Z,96450.14
2018-12-23T18:31:58.605Z,96454.53
2018-12-23T18:34:24.628Z,96474.30
2018-12-23T18:36:53.636Z,96467.70
2018-12-23T18:39:19.618Z,96457.86
2018-12-23T18:41:48.329Z,96463.80
2018-12-23T18:44:14.308Z,96458.38
2018-12-23T18:46:45.097Z,96458.19
2018-12-23T18:49:11.338Z,96458.55
2018-12-23T18:51:37.326Z,96466.91
2018-12-23T18:54:03.342Z,96475.35
2018-12-23T18:56:31.212Z,96468.36
2018-12-23T18:58:57.320Z,96473.47
2018-12-23T19:01:26.572Z,96464.81
2018-12-23T19:03:52.754Z,96462.60
2018-12-23T19:06:18.800Z,96467.38
2018-12-23T19:08:48.478Z,96469.44
2018-12-23T19:11:18.748Z,96452.23
2018-12-23T19:14:05.449Z,96469.98
2018-12-23T19:16:38.224Z,96464.59
2018-12-23T19:19:32.609Z,96471.09
2018-12-23T19:22:25.855Z,96466.79
2018-12-23T19:24:55.611Z,96465.58
2018-12-23T19:27:37.605Z,96465.67
2018-12-23T19:30:35.102Z,96460.27
2018-12-23T19:33:07.705Z,96454.13
2018-12-23T19:35:41.112Z,96460.46
2018-12-23T19:38:16.599Z,96453.98
2018-12-23T19:41:01.105Z,96469.80
2018-12-23T19:43:49.140Z,96480.48
2018-12-23T19:46:45.130Z,96474.65
2018-12-23T19:49:36.190Z,96477.70
2018-12-23T19:52:22.921Z,96487.19
2018-12-23T19:55:01.134Z,96480.40
2018-12-23T19:57:41.543Z,96477.44
2018-12-23T20:00:26.337Z,96489.16
2018-12-23T20:03:14.030Z,96470.56
2018-12-23T20:06:07.143Z,96462.96
2018-12-23T20:09:01.205Z,96467.59
2018-12-23T20:11:47.940Z,96474.47
2018-12-23T20:14:34.711Z,96470.92
2018-12-23T20:17:39.947Z,96474.02
2018-12-23T20:20:22.094Z,96465.44
2018-12-23T20:23:00.934Z,96470.34
2018-12-23T20:25:46.341Z,96468.64
2018-12-23T20:28:37.190Z,96463.75
2018-12-23T20:31:18.822Z,96462.35
2018-12-23T20:34:05.570Z,96463.29
2018-12-23T20:36:37.895Z,96462.71
2018-12-23T20:39:13.666Z,96457.98
2018-12-23T20:41:58.865Z,96456.87
2018-12-23T20:44:47.445Z,96455.20
2018-12-23T20:47:38.073Z,96448.69
2018-12-23T20:50:15.437Z,96456.05
2018-12-23T20:52:54.257Z,96444.33
2018-12-23T20:55:32.853Z,96460.11
2018-12-23T20:58:19.499Z,96342.30
2018-12-23T21:00:56.458Z,96449.10
2018-12-23T21:03:53.108Z,96447.44
2018-12-23T21:06:26.074Z,96457.41
2018-12-23T21:09:29.917Z,96443.21
2018-12-23T21:12:20.098Z,96448.82
2018-12-23T21:15:23.816Z,96437.19
2018-12-23T21:17:56.663Z,96442.40
2018-12-23T21:21:00.376Z,96440.78
2018-12-23T21:23:51.343Z,96435.52
2018-12-23T21:26:24.068Z,96425.35
2018-12-23T21:29:27.528Z,96425.06
2018-12-23T21:31:59.891Z,96432.17
2018-12-23T21:34:49.594Z,96428.05
2018-12-23T21:37:37.061Z,96436.36
2018-12-23T21:40:25.813Z,96426.45
2018-12-23T21:43:00.876Z,96434.31
2018-12-23T21:45:50.881Z,96431.30
2018-12-23T21:48:42.061Z,96422.59
2018-12-23T21:51:17.480Z,96418.99
2018-12-23T21:54:11.744Z,96410.50
2018-12-23T21:56:47.976Z,96419.62
2018-12-23T21:59:23.064Z,96418.59
2018-12-23T22:02:02.098Z,96417.78
2018-12-23T22:04:40.286Z,96418.98
2018-12-23T22:07:27.011Z,96418.14
2018-12-23T22:09:59.686Z,96420.02
2018-12-23T22:12:41.803Z,96407.09
2018-12-23T22:15:07.784Z,96405.06
2018-12-23T22:17:33.961Z,96402.77
2018-12-23T22:20:00.242Z,96404.98
2018-12-23T22:22:26.240Z,96404.17
2018-12-23T22:24:52.315Z,96393.27
2018-12-23T22:27:18.282Z,96400.05
2018-12-23T22:29:44.224Z,96354.78
2018-12-23T22:32:10.456Z,96391.83
2018-12-23T22:34:36.421Z,96391.24
2018-12-23T22:37:02.464Z,96390.70
2018-12-23T22:39:28.454Z,96382.76
2018-12-23T22:41:57.446Z,96386.43
2018-12-23T22:44:23.689Z,96389.03
2018-12-23T22:46:49.779Z,96382.03
2018-12-23T22:49:16.040Z,96381.77
2018-12-23T22:51:42.022Z,96376.56
2018-12-23T22:54:11.019Z,96381.50
2018-12-23T22:56:37.316Z,96380.20
2018-12-23T22:59:03.383Z,96377.50
2018-12-23T23:01:29.629Z,96368.88
2018-12-23T23:03:57.937Z,96380.02
2018-12-23T23:06:23.967Z,96378.53
2018-12-23T23:09:10.065Z,96377.23
2018-12-23T23:11:36.023Z,96375.21
2018-12-23T23:14:02.027Z,96363.58
2018-12-23T23:16:27.980Z,96355.31
2018-12-23T23:18:53.967Z,96357.07
2018-12-23T23:21:20.216Z,96357.43
2018-12-23T23:23:46.202Z,96346.20
2018-12-23T23:26:12.328Z,96349.52
2018-12-23T23:28:39.666Z,96345.52
2018-12-23T23:31:05.730Z,96336.86
2018-12-23T23:33:31.732Z,96339.47
2018-12-23T23:35:57.876Z,96336.50
2018-12-23T23:38:25.889Z,96339.47
2018-12-23T23:40:52.116Z,96320.97
2018-12-23T23:43:18.378Z,96323.34
2018-12-23T23:45:44.382Z,96314.59
2018-12-23T23:48:10.656Z,96309.16
2018-12-23T23:50:36.637Z,96303.81
2018-12-23T23:53:02.598Z,96303.33
2018-12-23T23:55:28.568Z,96298.12
2018-12-23T23:57:55.688Z,96285.94
